createdAt,value
2022-12-31T00:02:07.115Z,17.80
2022-12-31T00:04:33.779Z,17.00
2022-12-31T00:07:00.483Z,16.40
2022-12-31T00:09:27.150Z,16.40
2022-12-31T00:11:53.824Z,14.60
2022-12-31T00:14:20.456Z,16.20
2022-12-31T00:16:47.199Z,15.40
2022-12-31T00:19:13.893Z,15.70
2022-12-31T00:21:41.198Z,14.30
2022-12-31T00:24:08.282Z,14.70
2022-12-31T00:26:35.622Z,16.70
2022-12-31T00:29:03.191Z,19.70
2022-12-31T00:31:36.330Z,16.00
2022-12-31T00:34:03.445Z,15.20
2022-12-31T00:36:33.016Z,16.20
2022-12-31T00:39:01.275Z,13.60
2022-12-31T00:41:28.977Z,16.10
2022-12-31T00:43:56.106Z,14.80
2022-12-31T00:46:23.560Z,17.80
2022-12-31T00:48:50.271Z,23.40
2022-12-31T00:51:19.060Z,15.60
2022-12-31T00:53:45.992Z,15.80
2022-12-31T00:56:17.234Z,16.50
2022-12-31T00:58:44.928Z,17.20
2022-12-31T01:01:14.855Z,14.70
2022-12-31T01:03:42.112Z,16.40
2022-12-31T01:06:09.285Z,15.70
2022-12-31T01:08:36.413Z,14.70
2022-12-31T01:11:22.822Z,17.60
2022-12-31T01:13:49.908Z,12.70
2022-12-31T01:16:18.509Z,11.30
2022-12-31T01:18:45.528Z,13.40
2022-12-31T01:21:13.462Z,13.40
2022-12-31T01:23:40.813Z,14.50
2022-12-31T01:26:09.540Z,13.30
2022-12-31T01:28:36.461Z,14.60
2022-12-31T01:31:06.431Z,15.10
2022-12-31T01:33:33.610Z,13.30
2022-12-31T01:36:13.219Z,13.60
2022-12-31T01:38:40.987Z,10.90
2022-12-31T01:41:11.791Z,13.30
2022-12-31T01:43:49.279Z,14.60
2022-12-31T01:46:27.274Z,12.90
2022-12-31T01:51:25.803Z,11.20
2022-12-31T01:53:52.681Z,11.30
2022-12-31T01:56:22.562Z,11.40
2022-12-31T01:58:52.240Z,13.10
2022-12-31T02:01:25.641Z,11.40
2022-12-31T02:03:53.311Z,11.10
2022-12-31T02:06:23.640Z,12.50
2022-12-31T02:08:50.803Z,14.10
2022-12-31T02:11:31.315Z,11.20
2022-12-31T02:14:07.839Z,10.40
2022-12-31T02:16:38.581Z,11.80
2022-12-31T02:19:30.324Z,9.50
2022-12-31T02:22:02.118Z,10.60
2022-12-31T02:24:55.667Z,10.70
2022-12-31T02:27:42.158Z,11.50
2022-12-31T02:30:17.147Z,13.10
2022-12-31T02:33:11.728Z,13.10
2022-12-31T02:35:52.755Z,11.20
2022-12-31T02:38:42.455Z,13.50
2022-12-31T02:41:33.631Z,12.10
2022-12-31T02:44:00.261Z,12.20
2022-12-31T02:46:36.346Z,10.70
2022-12-31T02:49:24.226Z,14.50
2022-12-31T02:52:00.673Z,13.30
2022-12-31T02:55:05.949Z,10.90
2022-12-31T02:57:58.940Z,13.90
2022-12-31T03:00:44.897Z,13.00
2022-12-31T03:03:12.091Z,12.50
2022-12-31T03:05:43.107Z,13.00
2022-12-31T03:08:10.004Z,12.50
2022-12-31T03:10:37.039Z,13.30
2022-12-31T03:13:03.945Z,13.30
2022-12-31T03:15:34.458Z,13.50
2022-12-31T03:18:01.125Z,13.00
2022-12-31T03:21:00.232Z,14.60
2022-12-31T03:23:32.572Z,14.40
2022-12-31T03:26:00.453Z,14.50
2022-12-31T03:28:29.867Z,13.40
2022-12-31T03:31:00.275Z,11.00
2022-12-31T03:33:30.755Z,14.00
2022-12-31T03:35:57.729Z,17.00
2022-12-31T03:38:24.475Z,14.20
2022-12-31T03:40:54.072Z,13.80
2022-12-31T03:43:21.282Z,13.00
2022-12-31T03:45:52.652Z,15.90
2022-12-31T03:48:23.474Z,14.00
2022-12-31T03:50:51.311Z,15.70
2022-12-31T03:53:18.606Z,17.20
2022-12-31T03:55:45.331Z,15.50
2022-12-31T03:58:12.052Z,13.50
2022-12-31T04:00:38.759Z,14.40
2022-12-31T04:03:06.306Z,16.00
2022-12-31T04:05:33.829Z,16.00
2022-12-31T04:08:00.594Z,14.90
2022-12-31T04:10:27.348Z,13.90
2022-12-31T04:12:54.073Z,15.60
2022-12-31T04:15:21.789Z,15.20
2022-12-31T04:17:49.007Z,13.80
2022-12-31T04:20:16.280Z,14.40
2022-12-31T04:22:44.188Z,14.30
2022-12-31T04:25:11.593Z,12.80
2022-12-31T04:27:40.759Z,15.50
2022-12-31T04:30:09.704Z,16.80
2022-12-31T04:32:36.440Z,15.80
2022-12-31T04:35:03.330Z,13.90
2022-12-31T04:37:30.012Z,14.30
2022-12-31T04:40:01.889Z,13.10
2022-12-31T04:42:32.146Z,14.40
2022-12-31T04:44:58.772Z,12.10
2022-12-31T04:47:25.437Z,10.70
2022-12-31T04:49:52.117Z,11.50
2022-12-31T04:52:18.837Z,11.30
2022-12-31T04:54:45.499Z,8.90
2022-12-31T04:57:12.287Z,11.30
2022-12-31T04:59:39.709Z,10.50
2022-12-31T05:02:06.650Z,9.80
2022-12-31T05:04:33.575Z,11.30
2022-12-31T05:07:00.293Z,12.60
2022-12-31T05:09:28.345Z,13.40
2022-12-31T05:11:55.338Z,12.80
2022-12-31T05:14:22.193Z,14.60
2022-12-31T05:16:48.932Z,12.10
2022-12-31T05:19:16.155Z,12.00
2022-12-31T05:21:42.763Z,13.60
2022-12-31T05:24:09.403Z,9.50
2022-12-31T05:26:36.054Z,9.50
2022-12-31T05:29:02.886Z,10.50
2022-12-31T05:31:29.560Z,9.20
2022-12-31T05:33:56.359Z,9.10
2022-12-31T05:36:23.050Z,10.70
2022-12-31T05:38:49.723Z,10.20
2022-12-31T05:41:16.420Z,11.00
2022-12-31T05:43:43.095Z,9.80
2022-12-31T05:46:09.853Z,11.80
2022-12-31T05:48:36.509Z,10.30
2022-12-31T05:51:03.282Z,10.00
2022-12-31T05:53:30.006Z,7.70
2022-12-31T05:55:56.756Z,9.80
2022-12-31T05:58:23.475Z,10.90
2022-12-31T06:00:52.434Z,10.60
2022-12-31T06:03:19.157Z,10.70
2022-12-31T06:05:46.033Z,9.30
2022-12-31T06:08:12.968Z,9.20
2022-12-31T06:10:40.726Z,9.20
2022-12-31T06:13:08.008Z,11.00
2022-12-31T06:15:39.481Z,10.80
2022-12-31T06:18:06.863Z,12.40
2022-12-31T06:20:36.446Z,10.60
2022-12-31T06:23:03.268Z,9.40
2022-12-31T06:25:29.929Z,8.80
2022-12-31T06:27:56.630Z,9.60
2022-12-31T06:30:23.348Z,9.90
2022-12-31T06:32:50.041Z,10.30
2022-12-31T06:35:18.341Z,9.90
2022-12-31T06:37:45.161Z,10.10
2022-12-31T06:40:12.161Z,11.20
2022-12-31T06:42:39.143Z,12.50
2022-12-31T06:45:06.720Z,12.50
2022-12-31T06:47:33.407Z,13.20
2022-12-31T06:50:00.097Z,9.30
2022-12-31T06:52:26.907Z,9.10
2022-12-31T06:54:53.939Z,10.30
2022-12-31T06:57:20.905Z,8.70
2022-12-31T06:59:47.934Z,7.80
2022-12-31T07:02:29.898Z,8.30
2022-12-31T07:05:35.160Z,8.60
2022-12-31T07:08:29.724Z,8.00
2022-12-31T07:11:14.961Z,7.30
2022-12-31T07:13:47.482Z,11.90
2022-12-31T07:16:29.287Z,9.30
2022-12-31T07:19:20.886Z,9.70
2022-12-31T07:21:49.685Z,10.20
2022-12-31T07:24:16.803Z,9.20
2022-12-31T07:26:56.523Z,9.90
2022-12-31T07:29:47.875Z,8.30
2022-12-31T07:32:17.390Z,8.70
2022-12-31T07:34:56.020Z,10.40
2022-12-31T07:37:45.628Z,10.80
2022-12-31T07:40:18.298Z,10.20
2022-12-31T07:43:26.219Z,8.40
2022-12-31T07:46:26.146Z,8.60
2022-12-31T07:48:53.084Z,8.40
2022-12-31T07:51:20.321Z,8.80
2022-12-31T07:53:47.000Z,13.30
2022-12-31T07:56:14.024Z,8.30
2022-12-31T07:58:40.644Z,10.30
2022-12-31T08:01:13.681Z,7.00
2022-12-31T08:03:58.684Z,8.80
2022-12-31T08:06:40.372Z,11.60
2022-12-31T08:09:41.301Z,13.60
2022-12-31T08:12:08.589Z,11.40
2022-12-31T08:14:44.297Z,12.80
2022-12-31T08:17:13.840Z,12.00
2022-12-31T08:19:41.511Z,13.90
2022-12-31T08:22:08.150Z,12.30
2022-12-31T08:25:12.965Z,9.00
2022-12-31T08:27:57.180Z,10.20
2022-12-31T08:30:54.871Z,11.40
2022-12-31T08:33:35.703Z,10.50
2022-12-31T08:36:09.833Z,13.30
2022-12-31T08:38:58.243Z,10.50
2022-12-31T08:41:45.457Z,10.90
2022-12-31T08:44:35.932Z,12.40
2022-12-31T08:47:02.590Z,9.60
2022-12-31T08:49:32.048Z,13.20
2022-12-31T08:52:00.595Z,15.60
2022-12-31T08:54:27.746Z,16.60
2022-12-31T08:57:10.088Z,17.00
2022-12-31T09:00:03.559Z,18.90
2022-12-31T09:02:44.591Z,20.20
2022-12-31T09:05:24.530Z,14.90
2022-12-31T09:08:18.246Z,22.10
2022-12-31T09:10:58.981Z,15.50
2022-12-31T09:13:44.105Z,17.50
2022-12-31T09:16:36.712Z,16.10
2022-12-31T09:19:03.561Z,16.20
2022-12-31T09:21:32.388Z,15.50
2022-12-31T09:24:01.900Z,16.90
2022-12-31T09:26:48.428Z,14.90
2022-12-31T09:29:43.090Z,14.90
2022-12-31T09:32:34.411Z,25.90
2022-12-31T09:35:07.461Z,20.10
2022-12-31T09:37:50.583Z,17.50
2022-12-31T09:40:28.714Z,17.70
2022-12-31T09:45:37.934Z,19.50
2022-12-31T09:48:30.594Z,19.30
2022-12-31T09:51:06.903Z,19.50
2022-12-31T09:53:58.824Z,21.40
2022-12-31T09:56:28.413Z,18.70
2022-12-31T09:59:24.434Z,17.50
2022-12-31T10:01:57.300Z,18.80
2022-12-31T10:04:49.379Z,16.00
2022-12-31T10:07:18.959Z,18.30
2022-12-31T10:09:48.503Z,16.40
2022-12-31T10:12:52.595Z,18.90
2022-12-31T10:15:38.168Z,16.90
2022-12-31T10:18:16.262Z,17.90
2022-12-31T10:20:49.672Z,19.80
2022-12-31T10:23:43.593Z,26.20
2022-12-31T10:26:35.524Z,24.50
2022-12-31T10:29:02.405Z,18.00
2022-12-31T10:31:44.199Z,63.20
2022-12-31T10:34:39.854Z,51.00
2022-12-31T10:37:15.016Z,40.40
2022-12-31T10:40:25.420Z,19.90
2022-12-31T10:43:39.455Z,17.40
2022-12-31T10:46:23.887Z,60.80
2022-12-31T10:49:11.153Z,45.30
2022-12-31T10:52:25.594Z,48.70
2022-12-31T10:55:30.044Z,23.60
2022-12-31T10:58:15.623Z,26.10
2022-12-31T11:01:03.107Z,29.30
2022-12-31T11:03:51.484Z,23.60
2022-12-31T11:06:54.630Z,23.00
2022-12-31T11:09:54.423Z,21.90
2022-12-31T11:12:39.645Z,20.40
2022-12-31T11:15:21.679Z,26.80
2022-12-31T11:18:15.547Z,24.20
2022-12-31T11:21:26.224Z,20.80
2022-12-31T11:24:13.024Z,17.80
2022-12-31T11:26:48.558Z,16.10
2022-12-31T11:29:23.477Z,21.60
2022-12-31T11:32:06.679Z,15.40
2022-12-31T11:34:54.200Z,13.70
2022-12-31T11:37:47.547Z,16.90
2022-12-31T11:40:36.205Z,17.50
2022-12-31T11:43:22.717Z,16.60
2022-12-31T11:45:57.497Z,16.00
2022-12-31T11:48:45.323Z,19.70
2022-12-31T11:51:30.695Z,16.30
2022-12-31T11:54:16.203Z,21.00
2022-12-31T11:56:51.106Z,20.20
2022-12-31T11:59:19.815Z,16.70
2022-12-31T12:02:10.639Z,18.20
2022-12-31T12:04:37.403Z,18.90
2022-12-31T12:07:13.519Z,17.50
2022-12-31T12:09:41.343Z,17.40
2022-12-31T12:12:08.042Z,19.90
2022-12-31T12:14:38.795Z,17.30
2022-12-31T12:17:14.900Z,19.60
2022-12-31T12:19:45.682Z,18.80
2022-12-31T12:22:39.572Z,22.10
2022-12-31T12:25:16.171Z,20.20
2022-12-31T12:27:42.867Z,20.90
2022-12-31T12:30:21.789Z,17.80
2022-12-31T12:33:04.724Z,18.70
2022-12-31T12:35:34.420Z,18.20
2022-12-31T12:38:07.852Z,16.10
2022-12-31T12:40:34.966Z,19.70
2022-12-31T12:43:03.276Z,25.90
2022-12-31T12:45:46.347Z,25.70
2022-12-31T12:48:30.081Z,18.30
2022-12-31T12:50:57.800Z,21.10
2022-12-31T12:53:42.781Z,19.40
2022-12-31T12:56:22.943Z,18.10
2022-12-31T12:59:04.030Z,16.20
2022-12-31T13:01:47.828Z,20.70
2022-12-31T13:07:16.848Z,20.90
2022-12-31T13:10:10.153Z,18.20
2022-12-31T13:13:27.577Z,17.50
2022-12-31T13:16:00.613Z,21.70
2022-12-31T13:18:30.208Z,23.00
2022-12-31T13:21:17.245Z,24.80
2022-12-31T13:24:13.145Z,21.20
2022-12-31T13:26:48.739Z,17.60
2022-12-31T13:29:22.946Z,22.40
2022-12-31T13:31:51.432Z,24.50
2022-12-31T13:34:22.530Z,26.30
2022-12-31T13:36:51.761Z,25.20
2022-12-31T13:39:27.441Z,27.00
2022-12-31T13:42:36.230Z,23.40
2022-12-31T13:45:09.344Z,20.70
2022-12-31T13:47:52.183Z,25.20
2022-12-31T13:50:31.434Z,22.50
2022-12-31T13:53:16.643Z,21.60
2022-12-31T13:55:56.721Z,20.80
2022-12-31T13:58:35.447Z,27.50
2022-12-31T14:01:33.673Z,24.40
2022-12-31T14:04:10.553Z,23.70
2022-12-31T14:06:52.520Z,24.10
2022-12-31T14:09:28.047Z,24.10
2022-12-31T14:12:18.002Z,25.00
2022-12-31T14:15:18.257Z,24.60
2022-12-31T14:18:07.430Z,24.70
2022-12-31T14:20:53.861Z,29.30
2022-12-31T14:24:04.241Z,24.90
2022-12-31T14:26:39.360Z,27.20
2022-12-31T14:29:12.293Z,26.60
2022-12-31T14:31:48.015Z,26.70
2022-12-31T14:34:49.806Z,26.80
2022-12-31T14:37:38.433Z,28.70
2022-12-31T14:40:23.996Z,27.30
2022-12-31T14:43:15.687Z,24.90
2022-12-31T14:46:00.858Z,28.30
2022-12-31T14:48:36.931Z,26.80
2022-12-31T14:51:05.525Z,26.50
2022-12-31T14:53:32.473Z,27.10
2022-12-31T14:56:25.293Z,25.50
2022-12-31T14:58:57.463Z,24.10
2022-12-31T15:01:26.216Z,27.60
2022-12-31T15:03:58.488Z,25.30
2022-12-31T15:06:28.149Z,31.00
2022-12-31T15:09:08.616Z,28.60
2022-12-31T15:11:46.265Z,26.10
2022-12-31T15:14:22.043Z,31.90
2022-12-31T15:17:07.747Z,24.80
2022-12-31T15:19:40.078Z,26.70
2022-12-31T15:22:25.696Z,27.30
2022-12-31T15:24:52.634Z,26.50
2022-12-31T15:27:35.834Z,26.50
2022-12-31T15:30:04.825Z,29.80
2022-12-31T15:32:41.889Z,31.90
2022-12-31T15:35:20.515Z,30.60
2022-12-31T15:38:17.455Z,31.20
2022-12-31T15:40:52.349Z,31.00
2022-12-31T15:43:25.029Z,29.80
2022-12-31T15:45:54.250Z,28.50
2022-12-31T15:49:01.985Z,29.40
2022-12-31T15:52:04.837Z,29.40
2022-12-31T15:54:39.371Z,30.80
2022-12-31T15:57:12.223Z,27.40
2022-12-31T15:59:40.484Z,29.70
2022-12-31T16:02:21.252Z,26.70
2022-12-31T16:04:49.026Z,34.20
2022-12-31T16:07:17.274Z,29.00
2022-12-31T16:09:51.379Z,28.70
2022-12-31T16:12:32.706Z,28.60
2022-12-31T16:15:02.111Z,26.20
2022-12-31T16:17:33.317Z,28.20
2022-12-31T16:20:02.314Z,27.90
2022-12-31T16:22:36.992Z,26.60
2022-12-31T16:27:54.384Z,28.50
2022-12-31T16:30:37.574Z,32.20
2022-12-31T16:33:07.057Z,26.90
2022-12-31T16:35:37.530Z,30.10
2022-12-31T16:38:13.400Z,27.40
2022-12-31T16:40:43.115Z,29.70
2022-12-31T16:43:43.434Z,31.20
2022-12-31T16:46:26.791Z,36.50
2022-12-31T16:49:05.777Z,31.70
2022-12-31T16:51:37.324Z,32.00
2022-12-31T16:54:04.506Z,48.20
2022-12-31T16:56:38.439Z,50.80
2022-12-31T16:59:13.945Z,47.20
2022-12-31T17:01:42.651Z,52.60
2022-12-31T17:04:14.983Z,47.40
2022-12-31T17:06:42.985Z,48.20
2022-12-31T17:09:15.634Z,47.00
2022-12-31T17:11:50.488Z,49.70
2022-12-31T17:14:23.088Z,42.20
2022-12-31T17:17:02.279Z,41.30
2022-12-31T17:19:44.971Z,37.80
2022-12-31T17:22:34.334Z,34.90
2022-12-31T17:25:08.299Z,31.50
2022-12-31T17:27:36.644Z,32.70
2022-12-31T17:30:28.183Z,31.10
2022-12-31T17:33:02.974Z,24.50
2022-12-31T17:35:32.489Z,24.10
2022-12-31T17:38:18.035Z,24.00
2022-12-31T17:40:51.537Z,27.00
2022-12-31T17:43:21.343Z,28.10
2022-12-31T17:45:51.567Z,31.90
2022-12-31T17:48:20.180Z,31.20
2022-12-31T17:50:51.863Z,29.20
2022-12-31T17:53:19.263Z,32.80
2022-12-31T17:55:48.719Z,37.00
2022-12-31T17:58:23.562Z,52.70
2022-12-31T18:00:55.491Z,35.10
2022-12-31T18:03:22.281Z,35.30
2022-12-31T18:05:49.070Z,36.10
2022-12-31T18:08:15.890Z,38.00
2022-12-31T18:10:44.424Z,36.10
2022-12-31T18:13:17.415Z,34.40
2022-12-31T18:15:44.260Z,35.40
2022-12-31T18:18:24.466Z,33.80
2022-12-31T18:21:00.577Z,35.50
2022-12-31T18:23:39.704Z,31.40
2022-12-31T18:26:06.855Z,29.20
2022-12-31T18:28:33.522Z,34.30
2022-12-31T18:31:00.270Z,34.70
2022-12-31T18:33:27.485Z,34.70
2022-12-31T18:36:10.560Z,33.10
2022-12-31T18:38:38.131Z,35.50
2022-12-31T18:41:05.469Z,48.70
2022-12-31T18:43:32.498Z,37.00
2022-12-31T18:45:59.344Z,34.80
2022-12-31T18:48:26.121Z,43.40
2022-12-31T18:50:52.850Z,36.40
2022-12-31T18:53:22.154Z,37.30
2022-12-31T18:55:55.056Z,45.20
2022-12-31T18:58:22.115Z,38.60
2022-12-31T19:00:50.448Z,41.90
2022-12-31T19:03:23.490Z,43.90
2022-12-31T19:05:52.020Z,68.10
2022-12-31T19:08:20.440Z,54.30
2022-12-31T19:10:49.495Z,47.30
2022-12-31T19:13:17.882Z,33.70
2022-12-31T19:15:52.801Z,66.70
2022-12-31T19:18:19.785Z,49.80
2022-12-31T19:20:46.929Z,40.00
2022-12-31T19:23:17.914Z,30.80
2022-12-31T19:25:46.137Z,32.40
2022-12-31T19:28:24.699Z,27.80
2022-12-31T19:30:52.316Z,30.10
2022-12-31T19:33:20.108Z,24.90
2022-12-31T19:35:46.949Z,24.10
2022-12-31T19:38:22.763Z,23.30
2022-12-31T19:40:50.551Z,29.50
2022-12-31T19:43:21.396Z,30.70
2022-12-31T19:45:49.700Z,33.40
2022-12-31T19:48:20.644Z,27.00
2022-12-31T19:50:50.623Z,26.50
2022-12-31T19:53:26.663Z,29.40
2022-12-31T19:55:53.572Z,29.40
2022-12-31T19:58:24.753Z,26.90
2022-12-31T20:00:57.105Z,27.50
2022-12-31T20:03:28.145Z,25.30
2022-12-31T20:06:09.832Z,25.50
2022-12-31T20:08:38.447Z,25.90
2022-12-31T20:11:14.190Z,26.90
2022-12-31T20:13:42.725Z,23.40
2022-12-31T20:16:12.350Z,29.80
2022-12-31T20:18:41.223Z,34.40
2022-12-31T20:21:19.986Z,31.60
2022-12-31T20:23:48.599Z,30.70
2022-12-31T20:26:15.716Z,27.00
2022-12-31T20:28:42.810Z,29.60
2022-12-31T20:31:14.581Z,31.10
2022-12-31T20:33:42.293Z,29.10
2022-12-31T20:36:11.407Z,30.40
2022-12-31T20:38:38.455Z,32.70
2022-12-31T20:41:11.099Z,32.30
2022-12-31T20:43:38.880Z,33.20
2022-12-31T20:46:12.596Z,30.30
2022-12-31T20:48:41.504Z,29.30
2022-12-31T20:51:08.396Z,33.00
2022-12-31T20:53:35.134Z,29.90
2022-12-31T20:56:09.644Z,30.20
2022-12-31T20:58:36.973Z,32.00
2022-12-31T21:01:07.070Z,31.70
2022-12-31T21:06:44.309Z,41.50
2022-12-31T21:09:11.024Z,34.30
2022-12-31T21:11:56.108Z,33.30
2022-12-31T21:14:22.913Z,30.30
2022-12-31T21:16:49.809Z,29.70
2022-12-31T21:19:17.966Z,30.80
2022-12-31T21:21:44.646Z,36.60
2022-12-31T21:24:11.386Z,34.20
2022-12-31T21:26:38.052Z,34.20
2022-12-31T21:29:04.784Z,36.80
2022-12-31T21:31:31.500Z,33.90
2022-12-31T21:33:58.178Z,34.70
2022-12-31T21:36:24.865Z,33.80
2022-12-31T21:38:51.602Z,30.30
2022-12-31T21:41:44.114Z,31.40
2022-12-31T21:44:10.946Z,27.50
2022-12-31T21:46:37.571Z,28.30
2022-12-31T21:49:04.331Z,26.80
2022-12-31T21:51:31.015Z,24.80
2022-12-31T21:53:57.930Z,27.50
2022-12-31T21:56:25.032Z,22.30
2022-12-31T21:59:15.900Z,25.70
2022-12-31T22:02:02.157Z,20.90
2022-12-31T22:05:00.968Z,24.40
2022-12-31T22:07:15.904Z,23.10
2022-12-31T22:09:42.575Z,21.80
2022-12-31T22:12:09.254Z,26.00
2022-12-31T22:14:35.918Z,28.40
2022-12-31T22:17:02.560Z,26.10
2022-12-31T22:19:29.282Z,44.80
2022-12-31T22:21:55.984Z,31.80
2022-12-31T22:24:24.468Z,23.10
2022-12-31T22:26:52.262Z,35.00
2022-12-31T22:29:19.879Z,29.50
2022-12-31T22:31:46.679Z,18.60
2022-12-31T22:34:13.490Z,25.40
2022-12-31T22:36:40.134Z,23.00
2022-12-31T22:39:06.796Z,23.00
2022-12-31T22:41:33.998Z,22.00
2022-12-31T22:44:03.952Z,25.70
2022-12-31T22:46:32.060Z,23.30
2022-12-31T22:48:59.873Z,20.20
2022-12-31T22:51:54.947Z,19.50
2022-12-31T22:54:15.007Z,21.40
2022-12-31T22:56:41.773Z,22.80
2022-12-31T22:59:09.411Z,21.10
2022-12-31T23:01:36.916Z,52.00
2022-12-31T23:04:04.823Z,35.50
2022-12-31T23:06:32.230Z,76.50
2022-12-31T23:09:17.272Z,47.30
2022-12-31T23:11:44.246Z,61.20
2022-12-31T23:14:35.130Z,71.80
2022-12-31T23:17:30.127Z,61.70
2022-12-31T23:20:20.154Z,48.00
2022-12-31T23:23:05.683Z,32.40
2022-12-31T23:25:44.050Z,36.30
2022-12-31T23:28:13.906Z,74.60
2022-12-31T23:30:41.864Z,96.60
2022-12-31T23:33:13.482Z,114.00
2022-12-31T23:35:40.104Z,111.80
2022-12-31T23:38:06.768Z,108.00
2022-12-31T23:40:35.988Z,65.60
2022-12-31T23:43:05.633Z,53.80
2022-12-31T23:45:33.680Z,39.30
2022-12-31T23:48:00.962Z,38.30
2022-12-31T23:50:27.562Z,37.20
2022-12-31T23:52:54.407Z,52.20
2022-12-31T23:55:21.166Z,51.90
2022-12-31T23:57:47.839Z,41.10
